• Join FlightAware (Why Join?)
  • Login
  • US Flag 
09:17PM EDT


 

Airport Tracker/Info


-or-


 

Live Flight TrackerFlight Track Log ✈ JBU917 ✈ 05-Jul-2013 ✈ KBOS - KJFK

Flight Track Log - Related Links

Times and Time Zones

All times are in EDT time to prevent confusion due to time zone crossing. See the JBU917 flight status page for this flight to view local times or setup timezone preferences in your user account.

Time Position Orientation Groundspeed Altitude Reporting Facility
EDT Latitude Longitude Course Direction KTS MPH feet Rate Location/Type
05:57AM 42.3500 -71.0167 160° South 157 181 800  Level KA90
05:59AM 42.3069 -70.9325 125° Southeast 218 251 3,600 2,340 Climbing Boston Center
06:00AM 42.4004 -70.7337 144° Southeast  Level FlightAware Approximate
06:00AM 42.3325 -70.8253 72° East 247 284 6,800  Level Boston Center
06:01AM 42.3153 -70.6961 164° South  Level FlightAware Approximate
06:01AM 42.3061 -70.7164 108° East 277 319 10,100  Level Boston Center
06:02AM 42.2316 -70.6491 160° South  Level FlightAware Approximate
06:02AM 42.2300 -70.6567 150° Southeast 264 304 11,900  Level Boston Center
06:03AM 42.1459 -70.6062 160° South  Level FlightAware Approximate
06:03AM 42.1336 -70.6258 167° South 301 346 14,700  Level Boston Center
06:04AM 42.0364 -70.6622 196° South 318 366 17,100 2,340 Climbing Boston Center
06:05AM 41.9350 -70.7069 198° South 350 403 19,400 2,100 Climbing Boston Center
06:06AM 41.8375 -70.7514 199° South 365 420 21,400 1,260 Climbing Boston Center
06:07AM 41.7531 -70.8094 207° Southwest 377 434 22,000 300 Climbing Boston Center
06:08AM 41.6478 -70.8956 211° Southwest 399 459 22,000  Level Boston Center
06:09AM 41.5553 -70.9725 212° Southwest 399 459 22,000  Level Boston Center
06:10AM 41.4958 -71.0544 226° Southwest 399 459 22,000  Level Boston Center
06:11AM 41.4119 -71.1892 230° Southwest 389 448 22,000  Level Boston Center
06:12AM 41.3528 -71.3092 237° Southwest 394 453 22,000  Level Boston Center
06:13AM 41.3164 -71.4425 250° West 385 443 22,000  Level Boston Center
06:14AM 41.2781 -71.5728 249° West 390 449 22,000  Level Boston Center
06:15AM 41.2433 -71.6919 249° West 382 440 22,000  Level Boston Center
06:16AM 41.2067 -71.8247 250° West 377 434 22,000  Level Boston Center
06:17AM 41.1656 -71.9742 250° West 391 450 22,000 -600 Level Boston Center
06:18AM 41.1286 -72.1094 250° West 397 457 20,900 -1,380 Descending Boston Center
06:19AM 41.0978 -72.2142 249° West 392 451 19,300 -1,800 Descending Boston Center
06:20AM 41.0583 -72.3519 249° West 382 440 17,400 -1,800 Descending Boston Center
06:21AM 41.0186 -72.4703 246° West 370 426 15,700 -1,800 Descending Boston Center
06:22AM 40.9603 -72.5719 233° Southwest 360 414 13,800 -1,800 Descending Boston Center
06:23AM 40.9000 -72.6667 230° Southwest 317 365 12,400 -1,020 Descending New York TRACON
06:24AM 40.8667 -72.7500 242° Southwest 285 328 12,000 -240 Descending New York TRACON
06:25AM 40.8333 -72.8167 237° Southwest 280 322 12,000 -600 Level New York TRACON
06:26AM 40.8000 -72.9167 246° West 275 316 11,000 -1,260 Descending New York TRACON
06:27AM 40.7667 -73.0000 242° Southwest 268 308 9,400 -1,320 Descending New York TRACON
06:28AM 40.7333 -73.0833 242° Southwest 267 307 8,400 -1,500 Descending New York TRACON
06:29AM 40.7167 -73.1667 255° West 266 306 6,800 -1,740 Descending New York TRACON
06:30AM 40.7333 -73.2667 282° West 265 305 5,200 -1,380 Descending New York TRACON
06:30AM 40.7500 -73.3500 285° West 255 293 4,200 -720 Descending New York TRACON
06:31AM 40.7667 -73.4167 288° West 242 278 4,000 -360 Descending New York TRACON
06:32AM 40.7833 -73.4833 288° West 190 219 3,600 -720 Descending New York TRACON
06:33AM 40.7833 -73.5500 270° West 178 205 2,700 -900 Descending New York TRACON
06:34AM 40.7667 -73.6000 246° West 172 198 2,000 -360 Descending New York TRACON
06:35AM 40.7333 -73.6500 229° Southwest 173 199 2,000 -120 Level New York TRACON
06:36AM 40.7000 -73.6833 217° Southwest 162 186 1,800 -540 Descending New York TRACON
06:37AM 40.6833 -73.7167 237° Southwest 117 135 1,000 -780 Descending New York TRACON
06:38AM 40.6500 -73.7500 217° Southwest 125 144 300 -780 Descending New York TRACON
06:40AM 40.6333 -73.7667 North  Level FlightAware Approximate
06:47AM 40.6398 -73.7789 North  Level Estimated